Terminal Aerodrome Forecast
Issued by NWS Shreveport, LA

Home | Current Version | Previous Version | Text Only | Print | Product List | Glossary On
Versions: 1 2 3 4 5 6 7 8 9 10 11 12 13
000
FTUS44 KSHV 312342
TAFMLU
TAF
KMLU 312342Z 0100/0124 18005KT P6SM SCT080 BKN250
     FM010100 VRB03KT P6SM BKN250
     FM011600 VRB05KT P6SM FEW035 BKN200
     FM012000 20004KT P6SM SCT250=

USA.gov is the U.S. government's official web portal to all federal, state and local government web resources and services.